sensor_id;sensor_type;location;lat;lon;timestamp;P1;durP1;ratioP1;P2;durP2;ratioP2
23115;SDS011;11727;52.134;5.052;2023-08-30T00:00:40;8.73;;;3.20;;
23115;SDS011;11727;52.134;5.052;2023-08-30T00:03:06;3.50;;;2.15;;
23115;SDS011;11727;52.134;5.052;2023-08-30T00:05:33;5.80;;;3.08;;
23115;SDS011;11727;52.134;5.052;2023-08-30T00:07:58;8.55;;;3.15;;
23115;SDS011;11727;52.134;5.052;2023-08-30T00:10:24;5.38;;;2.78;;
23115;SDS011;11727;52.134;5.052;2023-08-30T00:12:50;4.07;;;2.80;;
23115;SDS011;11727;52.134;5.052;2023-08-30T00:15:16;6.32;;;3.58;;
23115;SDS011;11727;52.134;5.052;2023-08-30T00:17:41;6.25;;;3.22;;
23115;SDS011;11727;52.134;5.052;2023-08-30T00:20:07;5.65;;;2.75;;
23115;SDS011;11727;52.134;5.052;2023-08-30T00:22:34;7.00;;;2.83;;
23115;SDS011;11727;52.134;5.052;2023-08-30T00:25:01;8.63;;;3.20;;
23115;SDS011;11727;52.134;5.052;2023-08-30T00:27:26;6.88;;;3.47;;
23115;SDS011;11727;52.134;5.052;2023-08-30T00:29:52;5.88;;;2.75;;
23115;SDS011;11727;52.134;5.052;2023-08-30T00:32:18;6.15;;;2.65;;
23115;SDS011;11727;52.134;5.052;2023-08-30T00:34:43;7.75;;;3.20;;
23115;SDS011;11727;52.134;5.052;2023-08-30T00:37:09;7.57;;;2.90;;
23115;SDS011;11727;52.134;5.052;2023-08-30T00:39:37;5.63;;;3.25;;
23115;SDS011;11727;52.134;5.052;2023-08-30T00:42:04;5.38;;;2.88;;
23115;SDS011;11727;52.134;5.052;2023-08-30T00:44:32;8.98;;;3.25;;
23115;SDS011;11727;52.134;5.052;2023-08-30T00:47:01;6.57;;;3.17;;
23115;SDS011;11727;52.134;5.052;2023-08-30T00:49:29;9.15;;;4.30;;
23115;SDS011;11727;52.134;5.052;2023-08-30T00:54:21;5.75;;;3.22;;
23115;SDS011;11727;52.134;5.052;2023-08-30T00:56:47;7.90;;;3.65;;
23115;SDS011;11727;52.134;5.052;2023-08-30T00:59:13;6.57;;;2.95;;
23115;SDS011;11727;52.134;5.052;2023-08-30T01:01:39;7.43;;;3.33;;
23115;SDS011;11727;52.134;5.052;2023-08-30T01:04:06;7.07;;;3.70;;
23115;SDS011;11727;52.134;5.052;2023-08-30T01:06:32;9.32;;;3.85;;
23115;SDS011;11727;52.134;5.052;2023-08-30T01:17:23;8.63;;;3.63;;
23115;SDS011;11727;52.134;5.052;2023-08-30T01:20:00;9.15;;;3.83;;
23115;SDS011;11727;52.134;5.052;2023-08-30T01:23:00;9.80;;;4.07;;
23115;SDS011;11727;52.134;5.052;2023-08-30T01:28:22;7.50;;;3.80;;
23115;SDS011;11727;52.134;5.052;2023-08-30T01:30:49;10.20;;;4.40;;
23115;SDS011;11727;52.134;5.052;2023-08-30T01:33:15;7.38;;;4.03;;
23115;SDS011;11727;52.134;5.052;2023-08-30T01:35:43;8.23;;;3.58;;
23115;SDS011;11727;52.134;5.052;2023-08-30T01:38:09;6.70;;;4.13;;
23115;SDS011;11727;52.134;5.052;2023-08-30T01:40:36;7.80;;;4.20;;
23115;SDS011;11727;52.134;5.052;2023-08-30T01:43:05;9.50;;;4.63;;
23115;SDS011;11727;52.134;5.052;2023-08-30T01:45:36;11.20;;;4.88;;
23115;SDS011;11727;52.134;5.052;2023-08-30T01:48:05;7.70;;;3.78;;
23115;SDS011;11727;52.134;5.052;2023-08-30T01:50:34;7.72;;;3.70;;
23115;SDS011;11727;52.134;5.052;2023-08-30T01:53:00;7.05;;;3.60;;
23115;SDS011;11727;52.134;5.052;2023-08-30T01:55:27;6.72;;;3.95;;
23115;SDS011;11727;52.134;5.052;2023-08-30T01:57:54;7.83;;;4.30;;
23115;SDS011;11727;52.134;5.052;2023-08-30T02:00:20;10.98;;;4.13;;
23115;SDS011;11727;52.134;5.052;2023-08-30T02:02:46;9.77;;;4.75;;
23115;SDS011;11727;52.134;5.052;2023-08-30T02:05:12;11.30;;;4.23;;
23115;SDS011;11727;52.134;5.052;2023-08-30T02:08:00;9.13;;;4.57;;
23115;SDS011;11727;52.134;5.052;2023-08-30T02:10:54;8.18;;;4.20;;
23115;SDS011;11727;52.134;5.052;2023-08-30T02:13:25;14.23;;;4.55;;
23115;SDS011;11727;52.134;5.052;2023-08-30T02:15:51;8.35;;;4.32;;
23115;SDS011;11727;52.134;5.052;2023-08-30T02:18:20;9.35;;;4.53;;
23115;SDS011;11727;52.134;5.052;2023-08-30T02:20:45;10.65;;;4.53;;
23115;SDS011;11727;52.134;5.052;2023-08-30T02:23:14;10.25;;;4.15;;
23115;SDS011;11727;52.134;5.052;2023-08-30T02:25:40;10.27;;;4.97;;
23115;SDS011;11727;52.134;5.052;2023-08-30T02:28:05;12.48;;;4.28;;
23115;SDS011;11727;52.134;5.052;2023-08-30T02:30:31;8.95;;;3.78;;
23115;SDS011;11727;52.134;5.052;2023-08-30T02:32:56;8.38;;;4.32;;
23115;SDS011;11727;52.134;5.052;2023-08-30T02:35:22;14.52;;;4.90;;
23115;SDS011;11727;52.134;5.052;2023-08-30T02:37:47;8.18;;;4.25;;
23115;SDS011;11727;52.134;5.052;2023-08-30T02:40:13;11.80;;;5.05;;
23115;SDS011;11727;52.134;5.052;2023-08-30T02:42:39;8.63;;;4.55;;
23115;SDS011;11727;52.134;5.052;2023-08-30T02:45:04;10.32;;;4.55;;
23115;SDS011;11727;52.134;5.052;2023-08-30T02:47:30;10.90;;;4.80;;
23115;SDS011;11727;52.134;5.052;2023-08-30T02:49:56;7.43;;;4.40;;
23115;SDS011;11727;52.134;5.052;2023-08-30T02:52:21;12.48;;;5.25;;
23115;SDS011;11727;52.134;5.052;2023-08-30T02:54:47;13.45;;;5.13;;
23115;SDS011;11727;52.134;5.052;2023-08-30T02:57:12;9.90;;;4.90;;
23115;SDS011;11727;52.134;5.052;2023-08-30T02:59:38;15.10;;;5.57;;
23115;SDS011;11727;52.134;5.052;2023-08-30T03:02:04;10.55;;;4.30;;
23115;SDS011;11727;52.134;5.052;2023-08-30T03:04:30;10.43;;;5.32;;
23115;SDS011;11727;52.134;5.052;2023-08-30T03:06:55;12.30;;;5.60;;
23115;SDS011;11727;52.134;5.052;2023-08-30T03:09:21;12.30;;;5.63;;
23115;SDS011;11727;52.134;5.052;2023-08-30T03:11:46;11.77;;;5.05;;
23115;SDS011;11727;52.134;5.052;2023-08-30T03:14:12;11.13;;;4.90;;
23115;SDS011;11727;52.134;5.052;2023-08-30T03:16:38;12.00;;;4.97;;
23115;SDS011;11727;52.134;5.052;2023-08-30T03:19:04;10.00;;;4.82;;
23115;SDS011;11727;52.134;5.052;2023-08-30T03:21:29;10.30;;;5.18;;
23115;SDS011;11727;52.134;5.052;2023-08-30T03:23:55;13.63;;;5.50;;
23115;SDS011;11727;52.134;5.052;2023-08-30T03:26:21;9.90;;;5.10;;
23115;SDS011;11727;52.134;5.052;2023-08-30T03:28:46;10.85;;;5.05;;
23115;SDS011;11727;52.134;5.052;2023-08-30T03:31:12;9.85;;;5.15;;
23115;SDS011;11727;52.134;5.052;2023-08-30T03:33:39;11.70;;;4.25;;
23115;SDS011;11727;52.134;5.052;2023-08-30T03:36:06;11.18;;;4.72;;
23115;SDS011;11727;52.134;5.052;2023-08-30T03:38:34;10.90;;;5.00;;
23115;SDS011;11727;52.134;5.052;2023-08-30T03:40:59;13.70;;;4.60;;
23115;SDS011;11727;52.134;5.052;2023-08-30T03:43:25;12.93;;;4.72;;
23115;SDS011;11727;52.134;5.052;2023-08-30T03:45:51;9.68;;;4.80;;
23115;SDS011;11727;52.134;5.052;2023-08-30T03:48:17;10.85;;;5.35;;
23115;SDS011;11727;52.134;5.052;2023-08-30T03:50:43;9.52;;;5.00;;
23115;SDS011;11727;52.134;5.052;2023-08-30T03:53:08;8.82;;;5.28;;
23115;SDS011;11727;52.134;5.052;2023-08-30T03:55:34;16.05;;;5.28;;
23115;SDS011;11727;52.134;5.052;2023-08-30T03:57:59;10.52;;;5.03;;
23115;SDS011;11727;52.134;5.052;2023-08-30T04:00:25;11.95;;;4.90;;
23115;SDS011;11727;52.134;5.052;2023-08-30T04:02:51;13.25;;;5.72;;
23115;SDS011;11727;52.134;5.052;2023-08-30T04:05:16;12.48;;;5.38;;
23115;SDS011;11727;52.134;5.052;2023-08-30T04:07:42;8.45;;;4.85;;
23115;SDS011;11727;52.134;5.052;2023-08-30T04:10:07;10.27;;;5.22;;
23115;SDS011;11727;52.134;5.052;2023-08-30T04:12:34;12.77;;;5.10;;
23115;SDS011;11727;52.134;5.052;2023-08-30T04:15:00;8.32;;;4.50;;
23115;SDS011;11727;52.134;5.052;2023-08-30T04:17:27;13.45;;;4.93;;
23115;SDS011;11727;52.134;5.052;2023-08-30T04:19:52;9.77;;;4.57;;
23115;SDS011;11727;52.134;5.052;2023-08-30T04:22:18;14.85;;;5.53;;
23115;SDS011;11727;52.134;5.052;2023-08-30T04:24:44;11.82;;;5.05;;
23115;SDS011;11727;52.134;5.052;2023-08-30T04:27:10;11.57;;;5.78;;
23115;SDS011;11727;52.134;5.052;2023-08-30T04:29:36;8.77;;;4.72;;
23115;SDS011;11727;52.134;5.052;2023-08-30T04:32:01;9.45;;;5.18;;
23115;SDS011;11727;52.134;5.052;2023-08-30T04:34:27;18.40;;;5.45;;
23115;SDS011;11727;52.134;5.052;2023-08-30T04:36:54;10.80;;;4.25;;
23115;SDS011;11727;52.134;5.052;2023-08-30T04:39:20;14.15;;;4.97;;
23115;SDS011;11727;52.134;5.052;2023-08-30T04:41:45;10.15;;;4.88;;
23115;SDS011;11727;52.134;5.052;2023-08-30T04:44:11;10.23;;;4.35;;
23115;SDS011;11727;52.134;5.052;2023-08-30T04:46:37;12.43;;;5.47;;
23115;SDS011;11727;52.134;5.052;2023-08-30T04:49:02;9.15;;;4.07;;
23115;SDS011;11727;52.134;5.052;2023-08-30T04:51:28;12.38;;;4.85;;
23115;SDS011;11727;52.134;5.052;2023-08-30T04:53:54;10.63;;;4.68;;
23115;SDS011;11727;52.134;5.052;2023-08-30T04:56:19;12.30;;;5.43;;
23115;SDS011;11727;52.134;5.052;2023-08-30T04:58:45;9.88;;;4.95;;
23115;SDS011;11727;52.134;5.052;2023-08-30T05:01:10;8.68;;;4.55;;
23115;SDS011;11727;52.134;5.052;2023-08-30T05:03:38;9.55;;;4.88;;
23115;SDS011;11727;52.134;5.052;2023-08-30T05:06:04;11.45;;;4.50;;
23115;SDS011;11727;52.134;5.052;2023-08-30T05:08:31;10.48;;;4.22;;
23115;SDS011;11727;52.134;5.052;2023-08-30T05:10:57;10.57;;;4.07;;
23115;SDS011;11727;52.134;5.052;2023-08-30T05:13:22;10.40;;;4.45;;
23115;SDS011;11727;52.134;5.052;2023-08-30T05:15:48;9.80;;;4.35;;
23115;SDS011;11727;52.134;5.052;2023-08-30T05:18:13;9.05;;;4.20;;
23115;SDS011;11727;52.134;5.052;2023-08-30T05:20:39;11.43;;;4.00;;
23115;SDS011;11727;52.134;5.052;2023-08-30T05:23:06;7.43;;;4.05;;
23115;SDS011;11727;52.134;5.052;2023-08-30T05:25:32;10.57;;;4.40;;
23115;SDS011;11727;52.134;5.052;2023-08-30T05:27:58;11.30;;;4.53;;
23115;SDS011;11727;52.134;5.052;2023-08-30T05:30:23;10.82;;;4.43;;
23115;SDS011;11727;52.134;5.052;2023-08-30T05:32:49;9.35;;;4.43;;
23115;SDS011;11727;52.134;5.052;2023-08-30T05:35:14;9.40;;;4.65;;
23115;SDS011;11727;52.134;5.052;2023-08-30T05:37:40;12.52;;;5.00;;
23115;SDS011;11727;52.134;5.052;2023-08-30T05:40:06;8.05;;;3.80;;
23115;SDS011;11727;52.134;5.052;2023-08-30T05:42:32;8.38;;;4.28;;
23115;SDS011;11727;52.134;5.052;2023-08-30T05:44:58;9.90;;;4.45;;
23115;SDS011;11727;52.134;5.052;2023-08-30T05:47:24;7.50;;;4.30;;
23115;SDS011;11727;52.134;5.052;2023-08-30T05:49:49;11.18;;;5.20;;
23115;SDS011;11727;52.134;5.052;2023-08-30T05:52:15;9.05;;;4.38;;
23115;SDS011;11727;52.134;5.052;2023-08-30T05:54:43;17.95;;;5.38;;
23115;SDS011;11727;52.134;5.052;2023-08-30T05:57:09;9.57;;;4.63;;
23115;SDS011;11727;52.134;5.052;2023-08-30T05:59:35;11.77;;;4.90;;
23115;SDS011;11727;52.134;5.052;2023-08-30T06:02:01;12.18;;;5.30;;
23115;SDS011;11727;52.134;5.052;2023-08-30T06:04:27;9.15;;;4.68;;
23115;SDS011;11727;52.134;5.052;2023-08-30T06:06:52;9.90;;;4.90;;
23115;SDS011;11727;52.134;5.052;2023-08-30T06:09:18;10.93;;;4.57;;
23115;SDS011;11727;52.134;5.052;2023-08-30T06:11:44;13.30;;;5.45;;
23115;SDS011;11727;52.134;5.052;2023-08-30T06:14:09;13.15;;;5.85;;
23115;SDS011;11727;52.134;5.052;2023-08-30T06:16:41;10.98;;;4.93;;
23115;SDS011;11727;52.134;5.052;2023-08-30T06:19:09;14.68;;;6.20;;
23115;SDS011;11727;52.134;5.052;2023-08-30T06:21:35;12.43;;;6.07;;
23115;SDS011;11727;52.134;5.052;2023-08-30T06:24:01;13.15;;;5.60;;
23115;SDS011;11727;52.134;5.052;2023-08-30T06:26:29;12.90;;;5.82;;
23115;SDS011;11727;52.134;5.052;2023-08-30T06:28:55;10.77;;;5.35;;
23115;SDS011;11727;52.134;5.052;2023-08-30T06:31:20;11.63;;;6.03;;
23115;SDS011;11727;52.134;5.052;2023-08-30T06:33:46;10.18;;;4.80;;
23115;SDS011;11727;52.134;5.052;2023-08-30T06:36:13;10.32;;;5.03;;
23115;SDS011;11727;52.134;5.052;2023-08-30T06:41:06;12.95;;;5.80;;
23115;SDS011;11727;52.134;5.052;2023-08-30T06:43:32;15.32;;;5.72;;
23115;SDS011;11727;52.134;5.052;2023-08-30T06:45:58;16.20;;;6.50;;
23115;SDS011;11727;52.134;5.052;2023-08-30T06:48:24;12.85;;;6.28;;
23115;SDS011;11727;52.134;5.052;2023-08-30T06:50:56;10.82;;;5.63;;
23115;SDS011;11727;52.134;5.052;2023-08-30T06:53:22;12.63;;;5.40;;
23115;SDS011;11727;52.134;5.052;2023-08-30T06:55:56;9.77;;;5.40;;
23115;SDS011;11727;52.134;5.052;2023-08-30T06:58:22;12.07;;;6.07;;
23115;SDS011;11727;52.134;5.052;2023-08-30T07:00:48;11.27;;;5.53;;
23115;SDS011;11727;52.134;5.052;2023-08-30T07:03:13;14.82;;;6.13;;
23115;SDS011;11727;52.134;5.052;2023-08-30T07:05:39;13.38;;;6.10;;
23115;SDS011;11727;52.134;5.052;2023-08-30T07:08:05;11.30;;;4.85;;
23115;SDS011;11727;52.134;5.052;2023-08-30T07:10:31;12.18;;;5.07;;
23115;SDS011;11727;52.134;5.052;2023-08-30T07:15:24;12.27;;;5.28;;
23115;SDS011;11727;52.134;5.052;2023-08-30T07:17:50;11.63;;;5.32;;
23115;SDS011;11727;52.134;5.052;2023-08-30T07:20:16;11.15;;;4.90;;
23115;SDS011;11727;52.134;5.052;2023-08-30T07:22:42;8.98;;;4.75;;
23115;SDS011;11727;52.134;5.052;2023-08-30T07:25:08;9.80;;;4.65;;
23115;SDS011;11727;52.134;5.052;2023-08-30T07:27:35;8.82;;;4.20;;
23115;SDS011;11727;52.134;5.052;2023-08-30T07:30:02;11.23;;;5.00;;
23115;SDS011;11727;52.134;5.052;2023-08-30T07:32:29;10.50;;;3.97;;
23115;SDS011;11727;52.134;5.052;2023-08-30T07:34:55;6.88;;;3.95;;
23115;SDS011;11727;52.134;5.052;2023-08-30T07:37:23;9.18;;;4.00;;
23115;SDS011;11727;52.134;5.052;2023-08-30T07:39:48;5.95;;;3.65;;
23115;SDS011;11727;52.134;5.052;2023-08-30T07:44:41;9.77;;;4.05;;
23115;SDS011;11727;52.134;5.052;2023-08-30T07:47:07;8.02;;;3.88;;
23115;SDS011;11727;52.134;5.052;2023-08-30T07:49:33;7.00;;;4.03;;
23115;SDS011;11727;52.134;5.052;2023-08-30T07:51:58;11.27;;;4.30;;
23115;SDS011;11727;52.134;5.052;2023-08-30T07:54:24;8.90;;;3.70;;
23115;SDS011;11727;52.134;5.052;2023-08-30T07:56:49;6.22;;;3.35;;
23115;SDS011;11727;52.134;5.052;2023-08-30T07:59:15;5.82;;;3.60;;
23115;SDS011;11727;52.134;5.052;2023-08-30T08:01:41;8.23;;;3.75;;
23115;SDS011;11727;52.134;5.052;2023-08-30T08:04:06;5.10;;;2.92;;
23115;SDS011;11727;52.134;5.052;2023-08-30T08:06:32;8.82;;;3.80;;
23115;SDS011;11727;52.134;5.052;2023-08-30T08:08:58;8.80;;;3.95;;
23115;SDS011;11727;52.134;5.052;2023-08-30T08:11:23;4.95;;;2.75;;
23115;SDS011;11727;52.134;5.052;2023-08-30T08:13:49;6.80;;;3.03;;
23115;SDS011;11727;52.134;5.052;2023-08-30T08:16:14;6.75;;;2.90;;
23115;SDS011;11727;52.134;5.052;2023-08-30T08:18:40;6.07;;;3.22;;
23115;SDS011;11727;52.134;5.052;2023-08-30T08:21:06;6.63;;;3.05;;
23115;SDS011;11727;52.134;5.052;2023-08-30T08:23:31;6.10;;;2.60;;
23115;SDS011;11727;52.134;5.052;2023-08-30T08:25:58;6.00;;;3.47;;
23115;SDS011;11727;52.134;5.052;2023-08-30T08:28:24;7.40;;;2.93;;
23115;SDS011;11727;52.134;5.052;2023-08-30T08:30:49;7.03;;;3.28;;
23115;SDS011;11727;52.134;5.052;2023-08-30T08:33:16;6.70;;;3.42;;
23115;SDS011;11727;52.134;5.052;2023-08-30T08:35:43;10.00;;;3.27;;
23115;SDS011;11727;52.134;5.052;2023-08-30T08:38:09;8.32;;;3.75;;
23115;SDS011;11727;52.134;5.052;2023-08-30T08:40:38;6.85;;;3.03;;
23115;SDS011;11727;52.134;5.052;2023-08-30T08:43:05;6.75;;;3.08;;
23115;SDS011;11727;52.134;5.052;2023-08-30T08:45:40;5.95;;;3.30;;
23115;SDS011;11727;52.134;5.052;2023-08-30T08:48:06;6.18;;;2.70;;
23115;SDS011;11727;52.134;5.052;2023-08-30T08:50:32;8.60;;;3.30;;
23115;SDS011;11727;52.134;5.052;2023-08-30T08:52:59;4.75;;;3.10;;
23115;SDS011;11727;52.134;5.052;2023-08-30T08:55:29;6.80;;;3.47;;
23115;SDS011;11727;52.134;5.052;2023-08-30T08:57:58;6.38;;;3.28;;
23115;SDS011;11727;52.134;5.052;2023-08-30T09:00:24;5.40;;;3.03;;
23115;SDS011;11727;52.134;5.052;2023-08-30T09:02:50;5.75;;;2.85;;
23115;SDS011;11727;52.134;5.052;2023-08-30T09:05:18;4.65;;;3.00;;
23115;SDS011;11727;52.134;5.052;2023-08-30T09:07:44;7.70;;;3.40;;
23115;SDS011;11727;52.134;5.052;2023-08-30T09:10:10;5.80;;;3.50;;
23115;SDS011;11727;52.134;5.052;2023-08-30T09:12:36;7.30;;;3.88;;
23115;SDS011;11727;52.134;5.052;2023-08-30T09:15:02;7.20;;;3.42;;
23115;SDS011;11727;52.134;5.052;2023-08-30T09:17:36;9.98;;;3.25;;
23115;SDS011;11727;52.134;5.052;2023-08-30T09:20:09;6.10;;;3.67;;
23115;SDS011;11727;52.134;5.052;2023-08-30T09:22:37;6.63;;;4.03;;
23115;SDS011;11727;52.134;5.052;2023-08-30T09:25:06;7.45;;;4.25;;
23115;SDS011;11727;52.134;5.052;2023-08-30T09:27:34;8.20;;;4.47;;
23115;SDS011;11727;52.134;5.052;2023-08-30T09:30:00;8.45;;;4.65;;
23115;SDS011;11727;52.134;5.052;2023-08-30T09:32:28;8.27;;;4.55;;
23115;SDS011;11727;52.134;5.052;2023-08-30T09:34:53;10.27;;;4.47;;
23115;SDS011;11727;52.134;5.052;2023-08-30T09:37:22;8.40;;;5.18;;
23115;SDS011;11727;52.134;5.052;2023-08-30T09:39:48;9.80;;;5.47;;
23115;SDS011;11727;52.134;5.052;2023-08-30T09:42:16;9.88;;;5.85;;
23115;SDS011;11727;52.134;5.052;2023-08-30T09:44:43;8.30;;;4.97;;
23115;SDS011;11727;52.134;5.052;2023-08-30T09:47:08;10.65;;;5.55;;
23115;SDS011;11727;52.134;5.052;2023-08-30T09:49:40;12.30;;;7.18;;
23115;SDS011;11727;52.134;5.052;2023-08-30T09:52:14;10.88;;;6.75;;
23115;SDS011;11727;52.134;5.052;2023-08-30T09:57:08;10.05;;;6.45;;
23115;SDS011;11727;52.134;5.052;2023-08-30T09:59:35;10.52;;;5.82;;
23115;SDS011;11727;52.134;5.052;2023-08-30T10:04:29;12.80;;;4.93;;
23115;SDS011;11727;52.134;5.052;2023-08-30T10:06:58;7.65;;;4.70;;
23115;SDS011;11727;52.134;5.052;2023-08-30T10:09:24;15.80;;;6.68;;
23115;SDS011;11727;52.134;5.052;2023-08-30T10:11:50;6.70;;;3.50;;
23115;SDS011;11727;52.134;5.052;2023-08-30T10:14:16;6.38;;;3.45;;
23115;SDS011;11727;52.134;5.052;2023-08-30T10:16:43;5.10;;;2.20;;
23115;SDS011;11727;52.134;5.052;2023-08-30T10:19:14;5.78;;;2.53;;
23115;SDS011;11727;52.134;5.052;2023-08-30T10:21:54;7.00;;;3.20;;
23115;SDS011;11727;52.134;5.052;2023-08-30T10:24:38;7.47;;;2.55;;
23115;SDS011;11727;52.134;5.052;2023-08-30T10:27:11;5.20;;;1.88;;
23115;SDS011;11727;52.134;5.052;2023-08-30T10:29:39;4.55;;;1.85;;
23115;SDS011;11727;52.134;5.052;2023-08-30T10:32:06;6.78;;;1.52;;
23115;SDS011;11727;52.134;5.052;2023-08-30T10:34:32;3.67;;;1.40;;
23115;SDS011;11727;52.134;5.052;2023-08-30T10:37:02;3.85;;;1.50;;
23115;SDS011;11727;52.134;5.052;2023-08-30T10:39:34;3.15;;;1.70;;
23115;SDS011;11727;52.134;5.052;2023-08-30T10:42:07;2.70;;;1.30;;
23115;SDS011;11727;52.134;5.052;2023-08-30T10:47:18;5.82;;;1.73;;
23115;SDS011;11727;52.134;5.052;2023-08-30T10:49:46;6.20;;;2.53;;
23115;SDS011;11727;52.134;5.052;2023-08-30T10:52:12;3.35;;;1.55;;
23115;SDS011;11727;52.134;5.052;2023-08-30T10:54:38;4.30;;;1.77;;
23115;SDS011;11727;52.134;5.052;2023-08-30T10:57:03;6.45;;;2.00;;
23115;SDS011;11727;52.134;5.052;2023-08-30T10:59:29;5.70;;;1.80;;
23115;SDS011;11727;52.134;5.052;2023-08-30T11:01:55;3.83;;;1.73;;
23115;SDS011;11727;52.134;5.052;2023-08-30T11:04:21;5.00;;;1.65;;
23115;SDS011;11727;52.134;5.052;2023-08-30T11:06:48;5.72;;;1.98;;
23115;SDS011;11727;52.134;5.052;2023-08-30T11:09:24;5.13;;;1.63;;
23115;SDS011;11727;52.134;5.052;2023-08-30T11:11:50;5.68;;;1.55;;
23115;SDS011;11727;52.134;5.052;2023-08-30T11:14:17;7.35;;;1.73;;
23115;SDS011;11727;52.134;5.052;2023-08-30T11:16:43;5.13;;;1.33;;
23115;SDS011;11727;52.134;5.052;2023-08-30T11:19:10;3.78;;;1.40;;
23115;SDS011;11727;52.134;5.052;2023-08-30T11:21:44;16.00;;;1.73;;
23115;SDS011;11727;52.134;5.052;2023-08-30T11:24:10;6.28;;;1.38;;
23115;SDS011;11727;52.134;5.052;2023-08-30T11:26:37;7.40;;;0.95;;
23115;SDS011;11727;52.134;5.052;2023-08-30T11:31:59;3.95;;;1.13;;
23115;SDS011;11727;52.134;5.052;2023-08-30T11:34:26;2.08;;;0.90;;
23115;SDS011;11727;52.134;5.052;2023-08-30T11:36:52;6.65;;;1.02;;
23115;SDS011;11727;52.134;5.052;2023-08-30T11:39:18;5.22;;;1.17;;
23115;SDS011;11727;52.134;5.052;2023-08-30T11:41:45;4.82;;;1.42;;
23115;SDS011;11727;52.134;5.052;2023-08-30T11:44:11;4.00;;;1.23;;
23115;SDS011;11727;52.134;5.052;2023-08-30T11:46:37;4.88;;;1.10;;
23115;SDS011;11727;52.134;5.052;2023-08-30T11:49:03;7.07;;;1.48;;
23115;SDS011;11727;52.134;5.052;2023-08-30T11:51:29;8.63;;;1.60;;
23115;SDS011;11727;52.134;5.052;2023-08-30T11:53:56;6.35;;;1.60;;
23115;SDS011;11727;52.134;5.052;2023-08-30T11:56:22;8.05;;;0.90;;
23115;SDS011;11727;52.134;5.052;2023-08-30T11:58:48;5.28;;;0.93;;
23115;SDS011;11727;52.134;5.052;2023-08-30T12:01:14;8.75;;;1.55;;
23115;SDS011;11727;52.134;5.052;2023-08-30T12:03:40;5.85;;;1.15;;
23115;SDS011;11727;52.134;5.052;2023-08-30T12:06:09;8.38;;;1.10;;
23115;SDS011;11727;52.134;5.052;2023-08-30T12:08:36;4.63;;;1.20;;
23115;SDS011;11727;52.134;5.052;2023-08-30T12:11:02;6.45;;;1.48;;
23115;SDS011;11727;52.134;5.052;2023-08-30T12:13:33;10.50;;;1.77;;
23115;SDS011;11727;52.134;5.052;2023-08-30T12:16:00;6.55;;;0.98;;
23115;SDS011;11727;52.134;5.052;2023-08-30T12:18:27;3.60;;;1.08;;
23115;SDS011;11727;52.134;5.052;2023-08-30T12:20:58;4.57;;;0.90;;
23115;SDS011;11727;52.134;5.052;2023-08-30T12:23:25;5.72;;;1.27;;
23115;SDS011;11727;52.134;5.052;2023-08-30T12:25:58;2.22;;;0.80;;
23115;SDS011;11727;52.134;5.052;2023-08-30T12:28:38;8.20;;;1.10;;
23115;SDS011;11727;52.134;5.052;2023-08-30T12:31:05;5.63;;;0.80;;
23115;SDS011;11727;52.134;5.052;2023-08-30T12:33:34;5.30;;;0.90;;
23115;SDS011;11727;52.134;5.052;2023-08-30T12:36:01;4.85;;;1.13;;
23115;SDS011;11727;52.134;5.052;2023-08-30T12:38:26;4.25;;;1.10;;
23115;SDS011;11727;52.134;5.052;2023-08-30T12:40:53;11.68;;;1.52;;
23115;SDS011;11727;52.134;5.052;2023-08-30T12:43:19;3.92;;;0.93;;
23115;SDS011;11727;52.134;5.052;2023-08-30T12:45:46;7.15;;;1.95;;
23115;SDS011;11727;52.134;5.052;2023-08-30T12:48:13;5.53;;;0.93;;
23115;SDS011;11727;52.134;5.052;2023-08-30T12:50:43;9.27;;;1.02;;
23115;SDS011;11727;52.134;5.052;2023-08-30T12:53:11;4.85;;;1.35;;
23115;SDS011;11727;52.134;5.052;2023-08-30T12:55:37;5.05;;;0.90;;
23115;SDS011;11727;52.134;5.052;2023-08-30T12:58:05;4.93;;;1.40;;
23115;SDS011;11727;52.134;5.052;2023-08-30T13:00:32;3.20;;;0.90;;
23115;SDS011;11727;52.134;5.052;2023-08-30T13:02:58;7.03;;;1.17;;
23115;SDS011;11727;52.134;5.052;2023-08-30T13:05:24;7.38;;;1.00;;
23115;SDS011;11727;52.134;5.052;2023-08-30T13:07:50;7.85;;;1.15;;
23115;SDS011;11727;52.134;5.052;2023-08-30T13:10:16;4.35;;;1.00;;
23115;SDS011;11727;52.134;5.052;2023-08-30T13:12:41;4.90;;;1.17;;
23115;SDS011;11727;52.134;5.052;2023-08-30T13:15:08;5.88;;;1.30;;
23115;SDS011;11727;52.134;5.052;2023-08-30T13:17:34;5.88;;;1.23;;
23115;SDS011;11727;52.134;5.052;2023-08-30T13:19:59;2.63;;;0.80;;
23115;SDS011;11727;52.134;5.052;2023-08-30T13:22:26;5.57;;;0.93;;
23115;SDS011;11727;52.134;5.052;2023-08-30T13:24:52;2.55;;;0.93;;
23115;SDS011;11727;52.134;5.052;2023-08-30T13:27:18;4.70;;;0.98;;
23115;SDS011;11727;52.134;5.052;2023-08-30T13:29:45;4.97;;;1.10;;
23115;SDS011;11727;52.134;5.052;2023-08-30T13:32:10;2.45;;;1.00;;
23115;SDS011;11727;52.134;5.052;2023-08-30T13:34:36;5.68;;;0.95;;
23115;SDS011;11727;52.134;5.052;2023-08-30T13:37:02;5.15;;;1.20;;
23115;SDS011;11727;52.134;5.052;2023-08-30T13:39:28;2.47;;;1.00;;
23115;SDS011;11727;52.134;5.052;2023-08-30T13:41:54;3.78;;;1.30;;
23115;SDS011;11727;52.134;5.052;2023-08-30T13:44:19;2.10;;;0.82;;
23115;SDS011;11727;52.134;5.052;2023-08-30T13:46:45;2.65;;;0.85;;
23115;SDS011;11727;52.134;5.052;2023-08-30T13:49:14;6.18;;;1.10;;
23115;SDS011;11727;52.134;5.052;2023-08-30T13:51:40;1.98;;;0.95;;
23115;SDS011;11727;52.134;5.052;2023-08-30T13:54:06;6.82;;;1.30;;
23115;SDS011;11727;52.134;5.052;2023-08-30T13:56:32;4.70;;;1.20;;
23115;SDS011;11727;52.134;5.052;2023-08-30T13:58:58;6.20;;;0.80;;
23115;SDS011;11727;52.134;5.052;2023-08-30T14:01:24;3.88;;;1.20;;
23115;SDS011;11727;52.134;5.052;2023-08-30T14:03:51;4.63;;;0.70;;
23115;SDS011;11727;52.134;5.052;2023-08-30T14:06:17;3.20;;;1.00;;
23115;SDS011;11727;52.134;5.052;2023-08-30T14:08:42;2.58;;;0.70;;
23115;SDS011;11727;52.134;5.052;2023-08-30T14:11:08;5.25;;;0.98;;
23115;SDS011;11727;52.134;5.052;2023-08-30T14:13:34;2.75;;;0.75;;
23115;SDS011;11727;52.134;5.052;2023-08-30T14:16:00;2.58;;;0.63;;
23115;SDS011;11727;52.134;5.052;2023-08-30T14:18:29;1.30;;;0.43;;
23115;SDS011;11727;52.134;5.052;2023-08-30T14:20:55;3.50;;;0.70;;
23115;SDS011;11727;52.134;5.052;2023-08-30T14:23:24;3.53;;;0.80;;
23115;SDS011;11727;52.134;5.052;2023-08-30T14:26:03;5.25;;;0.75;;
23115;SDS011;11727;52.134;5.052;2023-08-30T14:28:40;0.73;;;0.52;;
23115;SDS011;11727;52.134;5.052;2023-08-30T14:31:07;3.60;;;0.70;;
23115;SDS011;11727;52.134;5.052;2023-08-30T14:33:33;2.73;;;0.77;;
23115;SDS011;11727;52.134;5.052;2023-08-30T14:35:59;6.78;;;1.08;;
23115;SDS011;11727;52.134;5.052;2023-08-30T14:38:27;1.98;;;0.50;;
23115;SDS011;11727;52.134;5.052;2023-08-30T14:40:57;1.75;;;0.50;;
23115;SDS011;11727;52.134;5.052;2023-08-30T14:43:25;3.13;;;0.50;;
23115;SDS011;11727;52.134;5.052;2023-08-30T14:45:50;3.55;;;0.70;;
23115;SDS011;11727;52.134;5.052;2023-08-30T14:48:16;1.95;;;0.55;;
23115;SDS011;11727;52.134;5.052;2023-08-30T14:50:42;4.38;;;0.82;;
23115;SDS011;11727;52.134;5.052;2023-08-30T14:53:08;1.33;;;0.40;;
23115;SDS011;11727;52.134;5.052;2023-08-30T14:55:33;2.25;;;0.60;;
23115;SDS011;11727;52.134;5.052;2023-08-30T14:57:59;5.00;;;0.50;;
23115;SDS011;11727;52.134;5.052;2023-08-30T15:00:25;2.40;;;0.60;;
23115;SDS011;11727;52.134;5.052;2023-08-30T15:02:50;2.53;;;0.40;;
23115;SDS011;11727;52.134;5.052;2023-08-30T15:05:16;4.25;;;0.52;;
23115;SDS011;11727;52.134;5.052;2023-08-30T15:07:42;3.50;;;0.60;;
23115;SDS011;11727;52.134;5.052;2023-08-30T15:10:08;2.22;;;0.55;;
23115;SDS011;11727;52.134;5.052;2023-08-30T15:12:33;5.20;;;0.68;;